sensor_id;sensor_type;location;lat;lon;timestamp;temperature;humidity
19555;DHT22;9924;50.828;6.440;2023-04-21T00:01:52;7.10;99.90
19555;DHT22;9924;50.828;6.440;2023-04-21T00:04:37;7.10;99.90
19555;DHT22;9924;50.828;6.440;2023-04-21T00:07:22;7.10;99.90
19555;DHT22;9924;50.828;6.440;2023-04-21T00:10:10;7.10;99.90
19555;DHT22;9924;50.828;6.440;2023-04-21T00:12:55;7.10;99.90
19555;DHT22;9924;50.828;6.440;2023-04-21T00:15:39;7.10;99.90
19555;DHT22;9924;50.828;6.440;2023-04-21T00:18:23;7.10;99.90
19555;DHT22;9924;50.828;6.440;2023-04-21T00:21:10;7.10;99.90
19555;DHT22;9924;50.828;6.440;2023-04-21T00:23:55;7.10;99.90
19555;DHT22;9924;50.828;6.440;2023-04-21T00:26:39;7.10;99.90
19555;DHT22;9924;50.828;6.440;2023-04-21T00:29:23;7.10;99.90
19555;DHT22;9924;50.828;6.440;2023-04-21T00:32:08;7.20;99.90
19555;DHT22;9924;50.828;6.440;2023-04-21T00:34:53;7.10;99.90
19555;DHT22;9924;50.828;6.440;2023-04-21T00:37:37;7.10;99.90
19555;DHT22;9924;50.828;6.440;2023-04-21T00:40:21;7.10;99.90
19555;DHT22;9924;50.828;6.440;2023-04-21T00:43:06;7.10;99.90
19555;DHT22;9924;50.828;6.440;2023-04-21T00:45:50;7.10;99.90
19555;DHT22;9924;50.828;6.440;2023-04-21T00:48:34;7.20;99.90
19555;DHT22;9924;50.828;6.440;2023-04-21T00:51:19;7.20;99.90
19555;DHT22;9924;50.828;6.440;2023-04-21T00:54:04;7.20;99.90
19555;DHT22;9924;50.828;6.440;2023-04-21T00:56:50;7.30;99.90
19555;DHT22;9924;50.828;6.440;2023-04-21T00:59:35;7.30;99.90
19555;DHT22;9924;50.828;6.440;2023-04-21T01:02:19;7.40;99.90
19555;DHT22;9924;50.828;6.440;2023-04-21T01:05:05;7.40;99.90
19555;DHT22;9924;50.828;6.440;2023-04-21T01:07:52;7.40;99.90
19555;DHT22;9924;50.828;6.440;2023-04-21T01:10:37;7.40;99.90
19555;DHT22;9924;50.828;6.440;2023-04-21T01:13:21;7.40;99.90
19555;DHT22;9924;50.828;6.440;2023-04-21T01:16:06;7.40;99.90
19555;DHT22;9924;50.828;6.440;2023-04-21T01:18:54;7.40;99.90
19555;DHT22;9924;50.828;6.440;2023-04-21T01:21:39;7.40;99.90
19555;DHT22;9924;50.828;6.440;2023-04-21T01:24:40;7.40;99.90
19555;DHT22;9924;50.828;6.440;2023-04-21T01:27:25;7.40;99.90
19555;DHT22;9924;50.828;6.440;2023-04-21T01:30:11;7.50;99.90
19555;DHT22;9924;50.828;6.440;2023-04-21T01:32:56;7.50;99.90
19555;DHT22;9924;50.828;6.440;2023-04-21T01:35:41;7.50;99.90
19555;DHT22;9924;50.828;6.440;2023-04-21T01:38:26;7.50;99.90
19555;DHT22;9924;50.828;6.440;2023-04-21T01:41:10;7.40;99.90
19555;DHT22;9924;50.828;6.440;2023-04-21T01:43:54;7.40;99.90
19555;DHT22;9924;50.828;6.440;2023-04-21T01:46:38;7.30;99.90
19555;DHT22;9924;50.828;6.440;2023-04-21T01:49:23;7.30;99.90
19555;DHT22;9924;50.828;6.440;2023-04-21T01:52:07;7.30;99.90
19555;DHT22;9924;50.828;6.440;2023-04-21T01:54:52;7.40;99.90
19555;DHT22;9924;50.828;6.440;2023-04-21T01:57:37;7.40;99.90
19555;DHT22;9924;50.828;6.440;2023-04-21T02:00:21;7.30;99.90
19555;DHT22;9924;50.828;6.440;2023-04-21T02:03:05;7.40;99.90
19555;DHT22;9924;50.828;6.440;2023-04-21T02:05:50;7.40;99.90
19555;DHT22;9924;50.828;6.440;2023-04-21T02:08:35;7.40;99.90
19555;DHT22;9924;50.828;6.440;2023-04-21T02:11:19;7.50;99.90
19555;DHT22;9924;50.828;6.440;2023-04-21T02:14:03;7.40;99.90
19555;DHT22;9924;50.828;6.440;2023-04-21T02:16:47;7.50;99.90
19555;DHT22;9924;50.828;6.440;2023-04-21T02:19:32;7.50;99.90
19555;DHT22;9924;50.828;6.440;2023-04-21T02:22:16;7.50;99.90
19555;DHT22;9924;50.828;6.440;2023-04-21T02:25:01;7.50;99.90
19555;DHT22;9924;50.828;6.440;2023-04-21T02:27:45;7.60;99.90
19555;DHT22;9924;50.828;6.440;2023-04-21T02:30:30;7.60;99.90
19555;DHT22;9924;50.828;6.440;2023-04-21T02:33:14;7.60;99.90
19555;DHT22;9924;50.828;6.440;2023-04-21T02:35:59;7.60;99.90
19555;DHT22;9924;50.828;6.440;2023-04-21T02:38:43;7.50;99.90
19555;DHT22;9924;50.828;6.440;2023-04-21T02:41:28;7.50;99.90
19555;DHT22;9924;50.828;6.440;2023-04-21T02:44:12;7.50;99.90
19555;DHT22;9924;50.828;6.440;2023-04-21T02:46:57;7.50;99.90
19555;DHT22;9924;50.828;6.440;2023-04-21T02:49:42;7.50;99.90
19555;DHT22;9924;50.828;6.440;2023-04-21T02:52:26;7.40;99.90
19555;DHT22;9924;50.828;6.440;2023-04-21T02:55:11;7.50;99.90
19555;DHT22;9924;50.828;6.440;2023-04-21T02:57:55;7.40;99.90
19555;DHT22;9924;50.828;6.440;2023-04-21T03:00:39;7.40;99.90
19555;DHT22;9924;50.828;6.440;2023-04-21T03:03:24;7.30;99.90
19555;DHT22;9924;50.828;6.440;2023-04-21T03:06:08;7.20;99.90
19555;DHT22;9924;50.828;6.440;2023-04-21T03:08:52;7.20;99.90
19555;DHT22;9924;50.828;6.440;2023-04-21T03:11:36;7.10;99.90
19555;DHT22;9924;50.828;6.440;2023-04-21T03:14:21;7.10;99.90
19555;DHT22;9924;50.828;6.440;2023-04-21T03:17:05;7.00;99.90
19555;DHT22;9924;50.828;6.440;2023-04-21T03:19:50;7.10;99.90
19555;DHT22;9924;50.828;6.440;2023-04-21T03:22:34;7.10;99.90
19555;DHT22;9924;50.828;6.440;2023-04-21T03:25:19;7.10;99.90
19555;DHT22;9924;50.828;6.440;2023-04-21T03:28:03;7.10;99.90
19555;DHT22;9924;50.828;6.440;2023-04-21T03:30:48;7.20;99.90
19555;DHT22;9924;50.828;6.440;2023-04-21T03:33:32;7.20;99.90
19555;DHT22;9924;50.828;6.440;2023-04-21T03:36:17;7.10;99.90
19555;DHT22;9924;50.828;6.440;2023-04-21T03:39:01;7.20;99.90
19555;DHT22;9924;50.828;6.440;2023-04-21T03:41:46;7.10;99.90
19555;DHT22;9924;50.828;6.440;2023-04-21T03:44:30;7.10;99.90
19555;DHT22;9924;50.828;6.440;2023-04-21T03:47:15;7.00;99.90
19555;DHT22;9924;50.828;6.440;2023-04-21T03:50:03;7.00;99.90
19555;DHT22;9924;50.828;6.440;2023-04-21T03:52:48;7.00;99.90
19555;DHT22;9924;50.828;6.440;2023-04-21T03:55:35;6.90;99.90
19555;DHT22;9924;50.828;6.440;2023-04-21T03:58:19;6.80;99.90
19555;DHT22;9924;50.828;6.440;2023-04-21T04:01:05;6.80;99.90
19555;DHT22;9924;50.828;6.440;2023-04-21T04:03:49;6.80;99.90
19555;DHT22;9924;50.828;6.440;2023-04-21T04:06:34;6.70;99.90
19555;DHT22;9924;50.828;6.440;2023-04-21T04:09:18;6.60;99.90
19555;DHT22;9924;50.828;6.440;2023-04-21T04:12:03;6.60;99.90
19555;DHT22;9924;50.828;6.440;2023-04-21T04:14:48;6.60;99.90
19555;DHT22;9924;50.828;6.440;2023-04-21T04:17:42;6.60;99.90
19555;DHT22;9924;50.828;6.440;2023-04-21T04:20:27;6.60;99.90
19555;DHT22;9924;50.828;6.440;2023-04-21T04:23:12;6.50;99.90
19555;DHT22;9924;50.828;6.440;2023-04-21T04:25:57;6.50;99.90
19555;DHT22;9924;50.828;6.440;2023-04-21T04:28:41;6.30;99.90
19555;DHT22;9924;50.828;6.440;2023-04-21T04:31:26;6.30;99.90
19555;DHT22;9924;50.828;6.440;2023-04-21T04:34:12;6.30;99.90
19555;DHT22;9924;50.828;6.440;2023-04-21T04:37:01;6.30;99.90
19555;DHT22;9924;50.828;6.440;2023-04-21T04:39:45;6.30;99.90
19555;DHT22;9924;50.828;6.440;2023-04-21T04:42:29;6.30;99.90
19555;DHT22;9924;50.828;6.440;2023-04-21T04:45:13;6.20;99.90
19555;DHT22;9924;50.828;6.440;2023-04-21T04:48:00;6.20;99.90
19555;DHT22;9924;50.828;6.440;2023-04-21T04:50:47;6.10;99.90
19555;DHT22;9924;50.828;6.440;2023-04-21T04:53:31;6.10;99.90
19555;DHT22;9924;50.828;6.440;2023-04-21T04:56:15;6.20;99.90
19555;DHT22;9924;50.828;6.440;2023-04-21T04:59:00;6.20;99.90
19555;DHT22;9924;50.828;6.440;2023-04-21T05:01:45;6.30;99.90
19555;DHT22;9924;50.828;6.440;2023-04-21T05:04:33;6.30;99.90
19555;DHT22;9924;50.828;6.440;2023-04-21T05:07:18;6.40;99.90
19555;DHT22;9924;50.828;6.440;2023-04-21T05:10:03;6.40;99.90
19555;DHT22;9924;50.828;6.440;2023-04-21T05:12:47;6.40;99.90
19555;DHT22;9924;50.828;6.440;2023-04-21T05:15:32;6.40;99.90
19555;DHT22;9924;50.828;6.440;2023-04-21T05:18:16;6.30;99.90
19555;DHT22;9924;50.828;6.440;2023-04-21T05:21:01;6.30;99.90
19555;DHT22;9924;50.828;6.440;2023-04-21T05:23:45;6.30;99.90
19555;DHT22;9924;50.828;6.440;2023-04-21T05:26:29;6.30;99.90
19555;DHT22;9924;50.828;6.440;2023-04-21T05:29:14;6.40;99.90
19555;DHT22;9924;50.828;6.440;2023-04-21T05:31:59;6.40;99.90
19555;DHT22;9924;50.828;6.440;2023-04-21T05:34:44;6.40;99.90
19555;DHT22;9924;50.828;6.440;2023-04-21T05:37:29;6.50;99.90
19555;DHT22;9924;50.828;6.440;2023-04-21T05:40:14;6.50;99.90
19555;DHT22;9924;50.828;6.440;2023-04-21T05:42:58;6.60;99.90
19555;DHT22;9924;50.828;6.440;2023-04-21T05:45:43;6.60;99.90
19555;DHT22;9924;50.828;6.440;2023-04-21T05:48:27;6.70;99.90
19555;DHT22;9924;50.828;6.440;2023-04-21T05:51:14;6.80;99.90
19555;DHT22;9924;50.828;6.440;2023-04-21T05:53:59;6.90;99.90
19555;DHT22;9924;50.828;6.440;2023-04-21T05:56:43;6.90;99.90
19555;DHT22;9924;50.828;6.440;2023-04-21T05:59:28;6.90;99.90
19555;DHT22;9924;50.828;6.440;2023-04-21T06:02:12;6.90;99.90
19555;DHT22;9924;50.828;6.440;2023-04-21T06:04:57;6.80;99.90
19555;DHT22;9924;50.828;6.440;2023-04-21T06:07:41;6.80;99.90
19555;DHT22;9924;50.828;6.440;2023-04-21T06:10:25;6.80;99.90
19555;DHT22;9924;50.828;6.440;2023-04-21T06:13:10;6.80;99.90
19555;DHT22;9924;50.828;6.440;2023-04-21T06:15:54;6.90;99.90
19555;DHT22;9924;50.828;6.440;2023-04-21T06:18:39;6.90;99.90
19555;DHT22;9924;50.828;6.440;2023-04-21T06:21:23;7.00;99.90
19555;DHT22;9924;50.828;6.440;2023-04-21T06:24:13;7.10;99.90
19555;DHT22;9924;50.828;6.440;2023-04-21T06:27:27;7.30;99.90
19555;DHT22;9924;50.828;6.440;2023-04-21T06:30:13;7.50;99.90
19555;DHT22;9924;50.828;6.440;2023-04-21T06:33:04;7.60;99.90
19555;DHT22;9924;50.828;6.440;2023-04-21T06:35:52;7.80;99.90
19555;DHT22;9924;50.828;6.440;2023-04-21T06:38:40;7.90;99.90
19555;DHT22;9924;50.828;6.440;2023-04-21T06:41:29;8.10;99.90
19555;DHT22;9924;50.828;6.440;2023-04-21T06:44:17;8.10;99.90
19555;DHT22;9924;50.828;6.440;2023-04-21T06:47:11;8.20;99.90
19555;DHT22;9924;50.828;6.440;2023-04-21T06:49:55;8.40;99.90
19555;DHT22;9924;50.828;6.440;2023-04-21T06:52:41;8.70;99.90
19555;DHT22;9924;50.828;6.440;2023-04-21T06:55:30;9.00;99.90
19555;DHT22;9924;50.828;6.440;2023-04-21T06:58:14;9.20;99.90
19555;DHT22;9924;50.828;6.440;2023-04-21T07:01:01;9.40;99.90
19555;DHT22;9924;50.828;6.440;2023-04-21T07:03:46;9.40;99.90
19555;DHT22;9924;50.828;6.440;2023-04-21T07:06:33;9.60;99.90
19555;DHT22;9924;50.828;6.440;2023-04-21T07:09:18;9.80;99.90
19555;DHT22;9924;50.828;6.440;2023-04-21T07:12:05;10.00;99.90
19555;DHT22;9924;50.828;6.440;2023-04-21T07:14:50;10.20;99.90
19555;DHT22;9924;50.828;6.440;2023-04-21T07:17:34;10.30;99.90
19555;DHT22;9924;50.828;6.440;2023-04-21T07:20:20;10.20;99.90
19555;DHT22;9924;50.828;6.440;2023-04-21T07:23:10;10.10;99.90
19555;DHT22;9924;50.828;6.440;2023-04-21T07:25:55;10.50;99.90
19555;DHT22;9924;50.828;6.440;2023-04-21T07:28:39;10.70;99.90
19555;DHT22;9924;50.828;6.440;2023-04-21T07:31:24;11.10;99.90
19555;DHT22;9924;50.828;6.440;2023-04-21T07:34:09;11.10;99.90
19555;DHT22;9924;50.828;6.440;2023-04-21T07:36:55;10.90;99.90
19555;DHT22;9924;50.828;6.440;2023-04-21T07:39:43;10.90;99.90
19555;DHT22;9924;50.828;6.440;2023-04-21T07:42:28;11.30;99.90
19555;DHT22;9924;50.828;6.440;2023-04-21T07:45:12;11.50;99.90
19555;DHT22;9924;50.828;6.440;2023-04-21T07:47:57;11.40;99.90
19555;DHT22;9924;50.828;6.440;2023-04-21T07:50:48;11.40;99.90
19555;DHT22;9924;50.828;6.440;2023-04-21T07:53:37;11.50;99.90
19555;DHT22;9924;50.828;6.440;2023-04-21T07:56:22;11.70;99.90
19555;DHT22;9924;50.828;6.440;2023-04-21T07:59:11;11.80;99.90
19555;DHT22;9924;50.828;6.440;2023-04-21T08:01:56;11.80;99.90
19555;DHT22;9924;50.828;6.440;2023-04-21T08:04:40;11.60;99.90
19555;DHT22;9924;50.828;6.440;2023-04-21T08:07:25;11.50;99.90
19555;DHT22;9924;50.828;6.440;2023-04-21T08:10:09;11.70;99.90
19555;DHT22;9924;50.828;6.440;2023-04-21T08:12:54;11.70;99.90
19555;DHT22;9924;50.828;6.440;2023-04-21T08:15:40;11.30;99.90
19555;DHT22;9924;50.828;6.440;2023-04-21T08:18:24;11.30;99.90
19555;DHT22;9924;50.828;6.440;2023-04-21T08:21:09;11.70;99.90
19555;DHT22;9924;50.828;6.440;2023-04-21T08:23:54;12.00;99.90
19555;DHT22;9924;50.828;6.440;2023-04-21T08:26:40;12.10;99.90
19555;DHT22;9924;50.828;6.440;2023-04-21T08:29:24;12.20;99.90
19555;DHT22;9924;50.828;6.440;2023-04-21T08:32:09;12.50;99.90
19555;DHT22;9924;50.828;6.440;2023-04-21T08:34:53;12.70;99.90
19555;DHT22;9924;50.828;6.440;2023-04-21T08:37:38;12.90;99.90
19555;DHT22;9924;50.828;6.440;2023-04-21T08:40:32;13.20;99.90
19555;DHT22;9924;50.828;6.440;2023-04-21T08:43:17;13.40;99.90
19555;DHT22;9924;50.828;6.440;2023-04-21T08:46:06;13.30;99.90
19555;DHT22;9924;50.828;6.440;2023-04-21T08:48:52;13.40;99.90
19555;DHT22;9924;50.828;6.440;2023-04-21T08:51:37;13.50;99.90
19555;DHT22;9924;50.828;6.440;2023-04-21T08:54:22;13.10;99.90
19555;DHT22;9924;50.828;6.440;2023-04-21T08:57:08;12.90;99.90
19555;DHT22;9924;50.828;6.440;2023-04-21T08:59:53;13.10;99.90
19555;DHT22;9924;50.828;6.440;2023-04-21T09:02:57;13.30;99.90
19555;DHT22;9924;50.828;6.440;2023-04-21T09:06:01;13.80;99.90
19555;DHT22;9924;50.828;6.440;2023-04-21T09:08:54;14.20;99.90
19555;DHT22;9924;50.828;6.440;2023-04-21T09:11:40;14.30;99.90
19555;DHT22;9924;50.828;6.440;2023-04-21T09:14:33;14.40;99.90
19555;DHT22;9924;50.828;6.440;2023-04-21T09:17:21;14.50;99.90
19555;DHT22;9924;50.828;6.440;2023-04-21T09:20:18;14.60;99.90
19555;DHT22;9924;50.828;6.440;2023-04-21T09:23:05;14.80;99.90
19555;DHT22;9924;50.828;6.440;2023-04-21T09:25:50;14.60;99.90
19555;DHT22;9924;50.828;6.440;2023-04-21T09:28:35;14.70;99.90
19555;DHT22;9924;50.828;6.440;2023-04-21T09:31:23;14.50;99.90
19555;DHT22;9924;50.828;6.440;2023-04-21T09:34:22;14.80;99.90
19555;DHT22;9924;50.828;6.440;2023-04-21T09:37:10;15.10;99.90
19555;DHT22;9924;50.828;6.440;2023-04-21T09:39:55;15.20;99.90
19555;DHT22;9924;50.828;6.440;2023-04-21T09:42:40;15.80;99.90
19555;DHT22;9924;50.828;6.440;2023-04-21T09:45:29;15.90;99.90
19555;DHT22;9924;50.828;6.440;2023-04-21T09:48:16;15.90;99.90
19555;DHT22;9924;50.828;6.440;2023-04-21T09:51:01;15.60;99.90
19555;DHT22;9924;50.828;6.440;2023-04-21T09:53:58;15.50;99.90
19555;DHT22;9924;50.828;6.440;2023-04-21T09:56:51;15.50;99.90
19555;DHT22;9924;50.828;6.440;2023-04-21T09:59:53;15.30;99.90
19555;DHT22;9924;50.828;6.440;2023-04-21T10:02:43;15.10;99.90
19555;DHT22;9924;50.828;6.440;2023-04-21T10:05:29;14.90;99.90
19555;DHT22;9924;50.828;6.440;2023-04-21T10:08:16;15.10;99.90
19555;DHT22;9924;50.828;6.440;2023-04-21T10:11:01;15.20;99.90
19555;DHT22;9924;50.828;6.440;2023-04-21T10:13:46;15.20;99.90
19555;DHT22;9924;50.828;6.440;2023-04-21T10:16:35;15.20;99.90
19555;DHT22;9924;50.828;6.440;2023-04-21T10:19:24;15.30;99.90
19555;DHT22;9924;50.828;6.440;2023-04-21T10:22:09;15.70;99.90
19555;DHT22;9924;50.828;6.440;2023-04-21T10:24:56;15.90;99.90
19555;DHT22;9924;50.828;6.440;2023-04-21T10:27:41;16.20;99.90
19555;DHT22;9924;50.828;6.440;2023-04-21T10:30:29;16.20;99.90
19555;DHT22;9924;50.828;6.440;2023-04-21T10:33:16;16.40;99.90
19555;DHT22;9924;50.828;6.440;2023-04-21T10:36:03;16.70;99.90
19555;DHT22;9924;50.828;6.440;2023-04-21T10:38:54;16.50;99.90
19555;DHT22;9924;50.828;6.440;2023-04-21T10:41:42;16.70;99.90
19555;DHT22;9924;50.828;6.440;2023-04-21T10:44:29;16.90;99.90
19555;DHT22;9924;50.828;6.440;2023-04-21T10:47:36;17.30;99.90
19555;DHT22;9924;50.828;6.440;2023-04-21T10:50:23;17.50;99.90
19555;DHT22;9924;50.828;6.440;2023-04-21T10:53:11;17.70;99.90
19555;DHT22;9924;50.828;6.440;2023-04-21T10:55:56;17.90;99.90
19555;DHT22;9924;50.828;6.440;2023-04-21T10:58:42;17.70;99.90
19555;DHT22;9924;50.828;6.440;2023-04-21T11:01:26;17.60;99.90
19555;DHT22;9924;50.828;6.440;2023-04-21T11:04:29;17.70;99.90
19555;DHT22;9924;50.828;6.440;2023-04-21T11:07:17;17.90;99.90
19555;DHT22;9924;50.828;6.440;2023-04-21T11:10:08;18.30;99.90
19555;DHT22;9924;50.828;6.440;2023-04-21T11:13:00;18.30;99.90
19555;DHT22;9924;50.828;6.440;2023-04-21T11:16:02;18.40;99.90
19555;DHT22;9924;50.828;6.440;2023-04-21T11:18:55;18.40;99.90
19555;DHT22;9924;50.828;6.440;2023-04-21T11:21:41;18.30;99.90
19555;DHT22;9924;50.828;6.440;2023-04-21T11:24:26;18.10;99.90
19555;DHT22;9924;50.828;6.440;2023-04-21T11:27:10;18.30;99.90
19555;DHT22;9924;50.828;6.440;2023-04-21T11:29:56;18.50;99.90
19555;DHT22;9924;50.828;6.440;2023-04-21T11:32:41;18.90;99.90
19555;DHT22;9924;50.828;6.440;2023-04-21T11:35:28;19.20;99.90
19555;DHT22;9924;50.828;6.440;2023-04-21T11:38:25;19.10;99.90
19555;DHT22;9924;50.828;6.440;2023-04-21T11:41:11;19.70;99.90
19555;DHT22;9924;50.828;6.440;2023-04-21T11:44:00;20.00;99.90
19555;DHT22;9924;50.828;6.440;2023-04-21T11:46:46;20.30;99.90
19555;DHT22;9924;50.828;6.440;2023-04-21T11:49:43;19.90;99.90
19555;DHT22;9924;50.828;6.440;2023-04-21T11:52:33;19.70;99.90
19555;DHT22;9924;50.828;6.440;2023-04-21T11:55:29;19.50;99.90
19555;DHT22;9924;50.828;6.440;2023-04-21T11:58:13;19.20;99.90
19555;DHT22;9924;50.828;6.440;2023-04-21T12:01:08;19.50;99.90
19555;DHT22;9924;50.828;6.440;2023-04-21T12:03:54;20.00;99.90
19555;DHT22;9924;50.828;6.440;2023-04-21T12:06:45;20.50;99.90
19555;DHT22;9924;50.828;6.440;2023-04-21T12:09:30;20.70;99.90
19555;DHT22;9924;50.828;6.440;2023-04-21T12:12:20;20.60;99.90
19555;DHT22;9924;50.828;6.440;2023-04-21T12:15:06;20.70;99.90
19555;DHT22;9924;50.828;6.440;2023-04-21T12:17:57;21.10;99.90
19555;DHT22;9924;50.828;6.440;2023-04-21T12:20:49;21.10;99.90
19555;DHT22;9924;50.828;6.440;2023-04-21T12:23:34;21.10;99.90
19555;DHT22;9924;50.828;6.440;2023-04-21T12:26:20;21.50;99.90
19555;DHT22;9924;50.828;6.440;2023-04-21T12:29:08;21.60;99.70
19555;DHT22;9924;50.828;6.440;2023-04-21T12:31:55;21.00;99.90
19555;DHT22;9924;50.828;6.440;2023-04-21T12:34:40;20.70;99.90
19555;DHT22;9924;50.828;6.440;2023-04-21T12:37:27;20.90;99.90
19555;DHT22;9924;50.828;6.440;2023-04-21T12:40:12;21.20;99.90
19555;DHT22;9924;50.828;6.440;2023-04-21T12:42:59;20.70;99.90
19555;DHT22;9924;50.828;6.440;2023-04-21T12:45:46;20.40;99.90
19555;DHT22;9924;50.828;6.440;2023-04-21T12:48:30;21.00;99.60
19555;DHT22;9924;50.828;6.440;2023-04-21T12:51:16;21.90;98.40
19555;DHT22;9924;50.828;6.440;2023-04-21T12:54:05;22.30;98.30
19555;DHT22;9924;50.828;6.440;2023-04-21T12:59:36;23.30;96.40
19555;DHT22;9924;50.828;6.440;2023-04-21T13:02:21;23.50;95.90
19555;DHT22;9924;50.828;6.440;2023-04-21T13:05:09;23.30;92.80
19555;DHT22;9924;50.828;6.440;2023-04-21T13:07:56;23.10;86.80
19555;DHT22;9924;50.828;6.440;2023-04-21T13:10:42;22.10;88.20
19555;DHT22;9924;50.828;6.440;2023-04-21T13:13:29;20.90;90.80
19555;DHT22;9924;50.828;6.440;2023-04-21T13:16:16;20.80;89.00
19555;DHT22;9924;50.828;6.440;2023-04-21T13:19:00;20.30;91.20
19555;DHT22;9924;50.828;6.440;2023-04-21T13:21:53;19.80;92.00
19555;DHT22;9924;50.828;6.440;2023-04-21T13:24:38;19.60;90.70
19555;DHT22;9924;50.828;6.440;2023-04-21T13:27:26;19.70;95.60
19555;DHT22;9924;50.828;6.440;2023-04-21T13:30:12;20.70;92.90
19555;DHT22;9924;50.828;6.440;2023-04-21T13:33:05;21.30;91.60
19555;DHT22;9924;50.828;6.440;2023-04-21T13:35:51;21.90;90.90
19555;DHT22;9924;50.828;6.440;2023-04-21T13:38:36;22.30;91.30
19555;DHT22;9924;50.828;6.440;2023-04-21T13:41:25;22.60;90.50
19555;DHT22;9924;50.828;6.440;2023-04-21T13:44:09;22.50;87.00
19555;DHT22;9924;50.828;6.440;2023-04-21T13:46:54;22.10;88.80
19555;DHT22;9924;50.828;6.440;2023-04-21T13:49:40;21.20;90.40
19555;DHT22;9924;50.828;6.440;2023-04-21T13:52:25;21.30;91.00
19555;DHT22;9924;50.828;6.440;2023-04-21T13:55:11;22.00;88.80
19555;DHT22;9924;50.828;6.440;2023-04-21T13:58:06;22.20;90.30
19555;DHT22;9924;50.828;6.440;2023-04-21T14:01:11;21.60;91.00
19555;DHT22;9924;50.828;6.440;2023-04-21T14:03:56;20.40;92.80
19555;DHT22;9924;50.828;6.440;2023-04-21T14:07:05;19.90;93.10
19555;DHT22;9924;50.828;6.440;2023-04-21T14:10:21;19.20;94.90
19555;DHT22;9924;50.828;6.440;2023-04-21T14:13:14;18.90;97.70
19555;DHT22;9924;50.828;6.440;2023-04-21T14:16:23;19.20;97.00
19555;DHT22;9924;50.828;6.440;2023-04-21T14:19:08;20.20;95.80
19555;DHT22;9924;50.828;6.440;2023-04-21T14:21:54;21.20;94.30
19555;DHT22;9924;50.828;6.440;2023-04-21T14:24:38;22.20;93.60
19555;DHT22;9924;50.828;6.440;2023-04-21T14:27:27;22.10;92.70
19555;DHT22;9924;50.828;6.440;2023-04-21T14:30:37;21.60;93.20
19555;DHT22;9924;50.828;6.440;2023-04-21T14:33:29;21.90;92.30
19555;DHT22;9924;50.828;6.440;2023-04-21T14:36:37;21.10;92.70
19555;DHT22;9924;50.828;6.440;2023-04-21T14:39:25;20.00;95.90
19555;DHT22;9924;50.828;6.440;2023-04-21T14:42:13;19.70;97.10
19555;DHT22;9924;50.828;6.440;2023-04-21T14:45:18;19.30;97.20
19555;DHT22;9924;50.828;6.440;2023-04-21T14:48:02;19.00;99.90
19555;DHT22;9924;50.828;6.440;2023-04-21T14:50:48;18.70;99.90
19555;DHT22;9924;50.828;6.440;2023-04-21T14:53:33;18.70;99.90
19555;DHT22;9924;50.828;6.440;2023-04-21T14:56:22;18.70;99.90
19555;DHT22;9924;50.828;6.440;2023-04-21T14:59:16;18.60;99.90
19555;DHT22;9924;50.828;6.440;2023-04-21T15:02:02;18.40;99.90
19555;DHT22;9924;50.828;6.440;2023-04-21T15:05:00;18.20;99.90
19555;DHT22;9924;50.828;6.440;2023-04-21T15:07:45;18.10;99.90
19555;DHT22;9924;50.828;6.440;2023-04-21T15:10:34;18.00;99.90
19555;DHT22;9924;50.828;6.440;2023-04-21T15:13:24;17.80;99.90
19555;DHT22;9924;50.828;6.440;2023-04-21T15:16:11;17.60;99.90
19555;DHT22;9924;50.828;6.440;2023-04-21T15:18:55;17.40;99.90
19555;DHT22;9924;50.828;6.440;2023-04-21T15:21:43;17.20;99.90
19555;DHT22;9924;50.828;6.440;2023-04-21T15:24:28;17.10;99.90
19555;DHT22;9924;50.828;6.440;2023-04-21T15:27:22;16.80;99.90
19555;DHT22;9924;50.828;6.440;2023-04-21T15:33:41;14.20;99.90
19555;DHT22;9924;50.828;6.440;2023-04-21T15:36:27;12.50;99.90
19555;DHT22;9924;50.828;6.440;2023-04-21T15:39:17;12.00;99.90
19555;DHT22;9924;50.828;6.440;2023-04-21T15:42:04;11.80;99.90
19555;DHT22;9924;50.828;6.440;2023-04-21T15:44:52;11.70;99.90
19555;DHT22;9924;50.828;6.440;2023-04-21T15:47:38;11.70;99.90
19555;DHT22;9924;50.828;6.440;2023-04-21T15:50:22;11.80;99.90
19555;DHT22;9924;50.828;6.440;2023-04-21T15:53:12;11.80;99.90
19555;DHT22;9924;50.828;6.440;2023-04-21T15:55:57;11.80;99.90
19555;DHT22;9924;50.828;6.440;2023-04-21T15:58:44;12.50;99.90
19555;DHT22;9924;50.828;6.440;2023-04-21T16:01:33;13.80;99.90
19555;DHT22;9924;50.828;6.440;2023-04-21T16:04:21;14.70;99.90
19555;DHT22;9924;50.828;6.440;2023-04-21T16:07:06;15.30;99.90
19555;DHT22;9924;50.828;6.440;2023-04-21T16:10:27;16.10;99.90
19555;DHT22;9924;50.828;6.440;2023-04-21T16:13:14;16.70;99.90
19555;DHT22;9924;50.828;6.440;2023-04-21T16:15:59;16.30;99.90
19555;DHT22;9924;50.828;6.440;2023-04-21T16:18:44;15.80;99.90
19555;DHT22;9924;50.828;6.440;2023-04-21T16:21:29;15.30;99.90
19555;DHT22;9924;50.828;6.440;2023-04-21T16:24:23;15.10;99.90
19555;DHT22;9924;50.828;6.440;2023-04-21T16:27:11;14.90;99.90
19555;DHT22;9924;50.828;6.440;2023-04-21T16:29:57;14.90;99.90
19555;DHT22;9924;50.828;6.440;2023-04-21T16:32:42;15.10;99.90
19555;DHT22;9924;50.828;6.440;2023-04-21T16:35:30;15.10;99.90
19555;DHT22;9924;50.828;6.440;2023-04-21T16:38:14;15.10;99.90
19555;DHT22;9924;50.828;6.440;2023-04-21T16:40:58;15.40;99.90
19555;DHT22;9924;50.828;6.440;2023-04-21T16:43:47;16.50;99.90
19555;DHT22;9924;50.828;6.440;2023-04-21T16:46:32;17.60;99.90
19555;DHT22;9924;50.828;6.440;2023-04-21T16:49:16;18.50;99.90
19555;DHT22;9924;50.828;6.440;2023-04-21T16:52:02;18.90;99.90
19555;DHT22;9924;50.828;6.440;2023-04-21T16:54:52;19.10;99.90
19555;DHT22;9924;50.828;6.440;2023-04-21T16:57:37;19.30;99.90
19555;DHT22;9924;50.828;6.440;2023-04-21T17:00:22;19.60;99.90
19555;DHT22;9924;50.828;6.440;2023-04-21T17:03:06;19.60;99.90
19555;DHT22;9924;50.828;6.440;2023-04-21T17:05:52;20.00;99.90
19555;DHT22;9924;50.828;6.440;2023-04-21T17:08:37;20.10;99.90
19555;DHT22;9924;50.828;6.440;2023-04-21T17:11:26;19.90;99.90
19555;DHT22;9924;50.828;6.440;2023-04-21T17:14:14;19.40;99.90
19555;DHT22;9924;50.828;6.440;2023-04-21T17:17:17;19.30;99.90
19555;DHT22;9924;50.828;6.440;2023-04-21T17:20:03;19.00;99.90
19555;DHT22;9924;50.828;6.440;2023-04-21T17:22:48;18.40;99.90
19555;DHT22;9924;50.828;6.440;2023-04-21T17:25:34;17.50;99.90
19555;DHT22;9924;50.828;6.440;2023-04-21T17:28:21;16.90;99.90
19555;DHT22;9924;50.828;6.440;2023-04-21T17:31:06;16.40;99.90
19555;DHT22;9924;50.828;6.440;2023-04-21T17:33:51;15.70;99.90
19555;DHT22;9924;50.828;6.440;2023-04-21T17:36:37;15.30;99.90
19555;DHT22;9924;50.828;6.440;2023-04-21T17:39:25;15.10;99.90
19555;DHT22;9924;50.828;6.440;2023-04-21T17:42:11;15.10;99.90
19555;DHT22;9924;50.828;6.440;2023-04-21T17:44:59;15.10;99.90
19555;DHT22;9924;50.828;6.440;2023-04-21T17:47:48;15.00;99.90
19555;DHT22;9924;50.828;6.440;2023-04-21T17:50:33;14.90;99.90
19555;DHT22;9924;50.828;6.440;2023-04-21T17:53:17;14.70;99.90
19555;DHT22;9924;50.828;6.440;2023-04-21T17:56:02;14.50;99.90
19555;DHT22;9924;50.828;6.440;2023-04-21T17:58:47;14.40;99.90
19555;DHT22;9924;50.828;6.440;2023-04-21T18:01:31;14.30;99.90
19555;DHT22;9924;50.828;6.440;2023-04-21T18:04:16;14.20;99.90
19555;DHT22;9924;50.828;6.440;2023-04-21T18:07:02;14.20;99.90